General Aviation Weather

Text Reports

Enter one or more of the following location identifiers separated by a space:

Zip Code, Four-Character ICAO or Three-Character IATA airport codes.

METAR - Aviation Routine Weather Report
KLDM - Ludington, Michigan
Updated at 4:15 PM GMT on February 09, 2016 (11:15 AM EST):
METAR KLDM 091615Z AUTO 34014G19KT 2 1/2SM -SN BKN019 OVC024 M05/M07 A2972 RMK AO2 T10481072
TAF - Terminal Area Forecast
KLDM - Ludington, Michigan
Updated at 4:15 PM GMT on February 09, 2016 (11:15 AM EST):
No TAF is currently available for this location.
Decoded:
No decoded TAF is available.
PIREP - Pilot Weather Report
KLDM - Ludington, Michigan
Updated at 4:15 PM GMT on February 09, 2016 (11:15 AM EST):
No PIREP is currently available for this location.
AIRMET - Airmens Meteorological Information
KLDM - Ludington, Michigan
Updated at 4:15 PM GMT on February 09, 2016 (11:15 AM EST):
No AIRMET is currently available for this location.
SIGMET - Significant Meteorological Information
KLDM - Ludington, Michigan
Updated at 4:15 PM GMT on February 09, 2016 (11:15 AM EST):
No SIGMET is currently available for this location.
NOTAM - Notice to Airmen
KLDM - Ludington, Michigan
Updated at 4:15 PM GMT on February 09, 2016 (11:15 AM EST):
No NOTAM is currently available for this location.
Forecast Area
KLDM - Ludington, Michigan
Updated at 4:15 PM GMT on February 09, 2016 (11:15 AM EST):
No NOTAM is currently available for this location.
Aviation Weather Maps